Airfield :
LOGIN :

Register | Disclaimer

   EN    FR    IT 

 










Legend :    VFR   Marginal VFR   IFR   Intensive IFR   Very Intensive IFR
Visi :
Ceiling :
>= 8 km
>= 3000ft
5 to 8 km
1000 to 3000 ft
1500m to 5 km
500 to 1000 ft
800 to 1500m
200 to 500 ft
< 800m
< 200 ft
Symbols :   Thunderstorms  Fog  Heavy snow  Heavy precipitations  Wind > 20 kt
SIGMETs :     Misc.  Thunderstorms  Icing  Turbulence  Mountain Waves  Volcanic Ashes







- Airport Elevation : 160 ft
- IATA code : FMO


EDDG - Münster Osnabrück Int.

CURRENT METAR :
  • 152020Z VRB02KT CAVOK 20/11 Q1016 NOSIG

EXPIRED METARs :
  • 151950Z 05003KT 010V100 CAVOK 21/11 Q1015 NOSIG
  • 151920Z 04004KT 360V110 CAVOK 23/10 Q1015 NOSIG
  • 151850Z 05005KT 350V090 CAVOK 24/09 Q1015 NOSIG
  • 151820Z 06005KT 360V110 CAVOK 25/09 Q1015 NOSIG
  • 151750Z 05005KT 360V110 CAVOK 26/09 Q1015 NOSIG

TAF TAF EDDG
Valid from the 15 at 18:00 until the 16 at 18:00 UTC


151700Z 1518/1618 05007KT CAVOK
BECMG 1518/1521 VRB03KT
BECMG 1607/1610 05006KT
No reported NOTAMs for that airfield.



MET'MAP, your aeronautical weather chart ! - Copyright ORBIFLY December 2007 - Disclaimer

ORBIFLY MET'MAP TEAM :

Programming & Development : Alexandra Zaïnal
Concept & Development : Baudouin d'Aumeries
Co-Development & Prog : Marc-Olivier Méhu
Technical & hardware support : Manuel Goepfert

Contact : metmap@orbifly.com




SOURCES & CREDITS :

   NOAA